EDLW/DTM METAR and TAF weather

Enter ICAO airport designator
Station Type Date Time Source
EDLW METAR 2020/08/11 00:50 UTC NOAA

EDLW 110050Z AUTO 05005KT 9999 // NCD 20/16 Q1015


Station Type Date Time Source
EDLW Decoded METAR 2020/08/11 00:50 UTC NOAA

Dortmund / Wickede, Germany (EDLW) 51-31N 007-37E
Aug 10, 2020 - 08:50 PM EDT / 2020.08.11 0050 UTC
Wind: from the NE (050 degrees) at 6 MPH (5 KT):0
Visibility: greater than 7 mile(s):0
Temperature: 68 F (20 C)
Dew Point: 60 F (16 C)
Relative Humidity: 77%
Pressure (altimeter): 29.97 in. Hg (1015 hPa)
ob: EDLW 110050Z AUTO 05005KT 9999 // NCD 20/16 Q1015
cycle: 1

Station Type Date Time Source
EDLW TAF 2020/08/10 22:53 UTC NOAA

TAF EDLW 102230Z 1022/1118 CNL

Example: see airport list